Terminal Aerodrome Forecast
Issued by NWS

Home | Current Version | Previous Version | Text Only | Print | Product List | Glossary On
Versions: 1 2 3 4 5 6 7 8 9 10 11 12 13 14 15 16 17 18 19 20 21 22 23 24
000
FTUS41 KAKQ 010619 AAA
TAFPHF
TAF AMD
KPHF 010619Z 0106/0206 00000KT 3SM BR SCT006 BKN250
      TEMPO 0106/0110 1/2SM FG SCT003 BKN250
     FM011300 07008KT P6SM SCT025 BKN200
     FM011700 08009KT P6SM -SHRA SCT025 BKN060 BKN120=

USA.gov is the U.S. government's official web portal to all federal, state and local government web resources and services.